sensor_id;sensor_type;location;lat;lon;timestamp;P1;durP1;ratioP1;P2;durP2;ratioP2
69837;SDS011;57135;51.992;4.476;2022-12-18T00:01:24;81.05;;;65.48;;
69837;SDS011;57135;51.992;4.476;2022-12-18T00:03:51;83.28;;;66.27;;
69837;SDS011;57135;51.992;4.476;2022-12-18T00:06:17;82.52;;;65.97;;
69837;SDS011;57135;51.992;4.476;2022-12-18T00:08:43;82.33;;;65.88;;
69837;SDS011;57135;51.992;4.476;2022-12-18T00:11:14;85.37;;;67.51;;
69837;SDS011;57135;51.992;4.476;2022-12-18T00:13:42;84.84;;;67.68;;
69837;SDS011;57135;51.992;4.476;2022-12-18T00:16:09;86.14;;;68.53;;
69837;SDS011;57135;51.992;4.476;2022-12-18T00:18:39;84.14;;;67.47;;
69837;SDS011;57135;51.992;4.476;2022-12-18T00:21:06;83.64;;;67.19;;
69837;SDS011;57135;51.992;4.476;2022-12-18T00:23:34;82.05;;;66.36;;
69837;SDS011;57135;51.992;4.476;2022-12-18T00:26:00;86.45;;;68.59;;
69837;SDS011;57135;51.992;4.476;2022-12-18T00:28:27;85.00;;;67.73;;
69837;SDS011;57135;51.992;4.476;2022-12-18T00:31:00;84.70;;;68.20;;
69837;SDS011;57135;51.992;4.476;2022-12-18T00:33:32;83.07;;;67.35;;
69837;SDS011;57135;51.992;4.476;2022-12-18T00:36:05;85.06;;;68.66;;
69837;SDS011;57135;51.992;4.476;2022-12-18T00:38:33;84.61;;;67.89;;
69837;SDS011;57135;51.992;4.476;2022-12-18T00:40:59;84.96;;;68.16;;
69837;SDS011;57135;51.992;4.476;2022-12-18T00:43:25;89.68;;;70.32;;
69837;SDS011;57135;51.992;4.476;2022-12-18T00:45:50;91.11;;;71.40;;
69837;SDS011;57135;51.992;4.476;2022-12-18T00:48:16;88.16;;;69.94;;
69837;SDS011;57135;51.992;4.476;2022-12-18T00:50:42;88.55;;;70.05;;
69837;SDS011;57135;51.992;4.476;2022-12-18T00:53:07;91.34;;;71.25;;
69837;SDS011;57135;51.992;4.476;2022-12-18T00:55:33;83.80;;;67.46;;
69837;SDS011;57135;51.992;4.476;2022-12-18T00:57:58;83.84;;;67.13;;
69837;SDS011;57135;51.992;4.476;2022-12-18T01:00:23;82.53;;;66.26;;
69837;SDS011;57135;51.992;4.476;2022-12-18T01:02:49;86.70;;;68.55;;
69837;SDS011;57135;51.992;4.476;2022-12-18T01:05:15;88.81;;;69.19;;
69837;SDS011;57135;51.992;4.476;2022-12-18T01:07:40;90.36;;;70.31;;
69837;SDS011;57135;51.992;4.476;2022-12-18T01:10:07;93.29;;;72.13;;
69837;SDS011;57135;51.992;4.476;2022-12-18T01:12:35;90.75;;;70.91;;
69837;SDS011;57135;51.992;4.476;2022-12-18T01:15:00;93.88;;;72.63;;
69837;SDS011;57135;51.992;4.476;2022-12-18T01:17:26;88.68;;;70.29;;
69837;SDS011;57135;51.992;4.476;2022-12-18T01:19:51;86.04;;;68.10;;
69837;SDS011;57135;51.992;4.476;2022-12-18T01:22:17;87.02;;;68.87;;
69837;SDS011;57135;51.992;4.476;2022-12-18T01:24:43;88.56;;;70.09;;
69837;SDS011;57135;51.992;4.476;2022-12-18T01:27:08;88.97;;;69.84;;
69837;SDS011;57135;51.992;4.476;2022-12-18T01:29:34;88.52;;;69.68;;
69837;SDS011;57135;51.992;4.476;2022-12-18T01:31:59;88.51;;;69.38;;
69837;SDS011;57135;51.992;4.476;2022-12-18T01:34:24;86.09;;;67.65;;
69837;SDS011;57135;51.992;4.476;2022-12-18T01:36:50;89.26;;;69.33;;
69837;SDS011;57135;51.992;4.476;2022-12-18T01:39:18;86.95;;;68.22;;
69837;SDS011;57135;51.992;4.476;2022-12-18T01:41:44;85.94;;;67.95;;
69837;SDS011;57135;51.992;4.476;2022-12-18T01:47:31;82.61;;;66.15;;
69837;SDS011;57135;51.992;4.476;2022-12-18T01:50:14;87.44;;;68.31;;
69837;SDS011;57135;51.992;4.476;2022-12-18T01:52:45;88.93;;;68.96;;
69837;SDS011;57135;51.992;4.476;2022-12-18T01:55:13;85.85;;;68.11;;
69837;SDS011;57135;51.992;4.476;2022-12-18T01:57:42;86.00;;;68.01;;
69837;SDS011;57135;51.992;4.476;2022-12-18T02:00:12;88.89;;;68.99;;
69837;SDS011;57135;51.992;4.476;2022-12-18T02:02:41;85.02;;;66.49;;
69837;SDS011;57135;51.992;4.476;2022-12-18T02:05:09;86.10;;;67.79;;
69837;SDS011;57135;51.992;4.476;2022-12-18T02:10:19;86.67;;;68.01;;
69837;SDS011;57135;51.992;4.476;2022-12-18T02:13:04;93.14;;;71.86;;
69837;SDS011;57135;51.992;4.476;2022-12-18T02:18:41;90.36;;;70.67;;
69837;SDS011;57135;51.992;4.476;2022-12-18T02:24:30;89.03;;;69.91;;
69837;SDS011;57135;51.992;4.476;2022-12-18T02:27:05;84.66;;;67.83;;
69837;SDS011;57135;51.992;4.476;2022-12-18T02:29:54;85.52;;;67.37;;
69837;SDS011;57135;51.992;4.476;2022-12-18T02:32:26;83.93;;;66.80;;
69837;SDS011;57135;51.992;4.476;2022-12-18T02:34:56;80.19;;;65.23;;
69837;SDS011;57135;51.992;4.476;2022-12-18T02:37:24;81.39;;;65.93;;
69837;SDS011;57135;51.992;4.476;2022-12-18T02:39:53;81.53;;;66.38;;
69837;SDS011;57135;51.992;4.476;2022-12-18T02:42:22;83.93;;;67.05;;
69837;SDS011;57135;51.992;4.476;2022-12-18T02:44:49;82.84;;;65.94;;
69837;SDS011;57135;51.992;4.476;2022-12-18T02:47:17;82.80;;;66.28;;
69837;SDS011;57135;51.992;4.476;2022-12-18T02:55:16;75.99;;;61.86;;
69837;SDS011;57135;51.992;4.476;2022-12-18T02:57:54;77.60;;;62.89;;
69837;SDS011;57135;51.992;4.476;2022-12-18T03:00:37;76.54;;;62.24;;
69837;SDS011;57135;51.992;4.476;2022-12-18T03:03:09;75.96;;;62.15;;
69837;SDS011;57135;51.992;4.476;2022-12-18T03:08:20;73.57;;;60.62;;
69837;SDS011;57135;51.992;4.476;2022-12-18T03:10:58;75.61;;;61.28;;
69837;SDS011;57135;51.992;4.476;2022-12-18T03:13:29;73.87;;;60.08;;
69837;SDS011;57135;51.992;4.476;2022-12-18T03:15:57;75.50;;;61.23;;
69837;SDS011;57135;51.992;4.476;2022-12-18T03:18:39;76.02;;;60.86;;
69837;SDS011;57135;51.992;4.476;2022-12-18T03:21:10;72.21;;;58.32;;
69837;SDS011;57135;51.992;4.476;2022-12-18T03:23:43;71.45;;;58.22;;
69837;SDS011;57135;51.992;4.476;2022-12-18T03:26:13;65.85;;;55.39;;
69837;SDS011;57135;51.992;4.476;2022-12-18T03:28:51;69.63;;;57.03;;
69837;SDS011;57135;51.992;4.476;2022-12-18T03:31:24;69.67;;;56.73;;
69837;SDS011;57135;51.992;4.476;2022-12-18T03:33:58;67.16;;;55.37;;
69837;SDS011;57135;51.992;4.476;2022-12-18T03:36:27;67.11;;;55.64;;
69837;SDS011;57135;51.992;4.476;2022-12-18T03:38:53;69.39;;;56.78;;
69837;SDS011;57135;51.992;4.476;2022-12-18T03:43:57;67.63;;;55.46;;
69837;SDS011;57135;51.992;4.476;2022-12-18T03:47:08;67.61;;;55.65;;
69837;SDS011;57135;51.992;4.476;2022-12-18T03:49:45;66.34;;;54.58;;
69837;SDS011;57135;51.992;4.476;2022-12-18T03:52:29;66.93;;;54.25;;
69837;SDS011;57135;51.992;4.476;2022-12-18T03:55:02;69.17;;;56.10;;
69837;SDS011;57135;51.992;4.476;2022-12-18T03:57:31;67.64;;;55.48;;
69837;SDS011;57135;51.992;4.476;2022-12-18T04:00:00;70.76;;;56.90;;
69837;SDS011;57135;51.992;4.476;2022-12-18T04:02:30;68.28;;;55.51;;
69837;SDS011;57135;51.992;4.476;2022-12-18T04:04:58;72.54;;;57.78;;
69837;SDS011;57135;51.992;4.476;2022-12-18T04:07:28;70.86;;;56.86;;
69837;SDS011;57135;51.992;4.476;2022-12-18T04:09:54;69.71;;;56.56;;
69837;SDS011;57135;51.992;4.476;2022-12-18T04:12:24;75.14;;;59.30;;
69837;SDS011;57135;51.992;4.476;2022-12-18T04:14:51;72.94;;;58.34;;
69837;SDS011;57135;51.992;4.476;2022-12-18T04:17:17;69.51;;;56.53;;
69837;SDS011;57135;51.992;4.476;2022-12-18T04:19:42;69.34;;;56.64;;
69837;SDS011;57135;51.992;4.476;2022-12-18T04:22:09;69.73;;;57.13;;
69837;SDS011;57135;51.992;4.476;2022-12-18T04:24:35;74.52;;;59.10;;
69837;SDS011;57135;51.992;4.476;2022-12-18T04:27:01;74.46;;;59.49;;
69837;SDS011;57135;51.992;4.476;2022-12-18T04:29:26;70.80;;;57.66;;
69837;SDS011;57135;51.992;4.476;2022-12-18T04:31:52;70.75;;;57.32;;
69837;SDS011;57135;51.992;4.476;2022-12-18T04:34:17;76.18;;;60.11;;
69837;SDS011;57135;51.992;4.476;2022-12-18T04:36:43;73.19;;;58.73;;
69837;SDS011;57135;51.992;4.476;2022-12-18T04:39:08;73.44;;;58.55;;
69837;SDS011;57135;51.992;4.476;2022-12-18T04:41:34;72.65;;;58.32;;
69837;SDS011;57135;51.992;4.476;2022-12-18T04:43:59;71.97;;;58.35;;
69837;SDS011;57135;51.992;4.476;2022-12-18T04:46:25;72.94;;;58.40;;
69837;SDS011;57135;51.992;4.476;2022-12-18T04:48:50;72.40;;;58.67;;
69837;SDS011;57135;51.992;4.476;2022-12-18T04:51:16;71.54;;;57.87;;
69837;SDS011;57135;51.992;4.476;2022-12-18T04:53:41;71.08;;;57.59;;
69837;SDS011;57135;51.992;4.476;2022-12-18T04:56:10;69.87;;;56.66;;
69837;SDS011;57135;51.992;4.476;2022-12-18T04:58:38;68.89;;;56.19;;
69837;SDS011;57135;51.992;4.476;2022-12-18T05:01:06;67.31;;;55.48;;
69837;SDS011;57135;51.992;4.476;2022-12-18T05:03:32;66.91;;;54.82;;
69837;SDS011;57135;51.992;4.476;2022-12-18T05:05:59;64.35;;;53.22;;
69837;SDS011;57135;51.992;4.476;2022-12-18T05:08:25;62.94;;;52.94;;
69837;SDS011;57135;51.992;4.476;2022-12-18T05:10:57;58.37;;;50.02;;
69837;SDS011;57135;51.992;4.476;2022-12-18T05:13:27;59.74;;;50.97;;
69837;SDS011;57135;51.992;4.476;2022-12-18T05:15:53;58.16;;;50.09;;
69837;SDS011;57135;51.992;4.476;2022-12-18T05:18:19;59.29;;;50.93;;
69837;SDS011;57135;51.992;4.476;2022-12-18T05:20:45;59.20;;;50.56;;
69837;SDS011;57135;51.992;4.476;2022-12-18T05:23:10;59.12;;;50.38;;
69837;SDS011;57135;51.992;4.476;2022-12-18T05:25:35;57.41;;;49.56;;
69837;SDS011;57135;51.992;4.476;2022-12-18T05:28:01;57.89;;;50.17;;
69837;SDS011;57135;51.992;4.476;2022-12-18T05:30:26;58.38;;;50.25;;
69837;SDS011;57135;51.992;4.476;2022-12-18T05:32:52;58.71;;;50.59;;
69837;SDS011;57135;51.992;4.476;2022-12-18T05:35:18;57.36;;;49.76;;
69837;SDS011;57135;51.992;4.476;2022-12-18T05:37:44;57.74;;;49.96;;
69837;SDS011;57135;51.992;4.476;2022-12-18T05:40:09;58.30;;;50.30;;
69837;SDS011;57135;51.992;4.476;2022-12-18T05:42:35;56.87;;;49.31;;
69837;SDS011;57135;51.992;4.476;2022-12-18T05:45:01;56.92;;;49.75;;
69837;SDS011;57135;51.992;4.476;2022-12-18T05:47:26;57.52;;;50.07;;
69837;SDS011;57135;51.992;4.476;2022-12-18T05:49:52;58.33;;;50.33;;
69837;SDS011;57135;51.992;4.476;2022-12-18T05:52:18;58.88;;;50.93;;
69837;SDS011;57135;51.992;4.476;2022-12-18T05:54:43;57.74;;;50.44;;
69837;SDS011;57135;51.992;4.476;2022-12-18T05:57:09;56.67;;;49.72;;
69837;SDS011;57135;51.992;4.476;2022-12-18T05:59:34;58.49;;;50.41;;
69837;SDS011;57135;51.992;4.476;2022-12-18T06:02:00;57.28;;;50.08;;
69837;SDS011;57135;51.992;4.476;2022-12-18T06:04:26;55.74;;;48.70;;
69837;SDS011;57135;51.992;4.476;2022-12-18T06:06:53;56.19;;;49.67;;
69837;SDS011;57135;51.992;4.476;2022-12-18T06:09:19;54.63;;;48.32;;
69837;SDS011;57135;51.992;4.476;2022-12-18T06:11:44;55.26;;;48.93;;
69837;SDS011;57135;51.992;4.476;2022-12-18T06:14:10;56.43;;;49.76;;
69837;SDS011;57135;51.992;4.476;2022-12-18T06:16:35;56.15;;;49.38;;
69837;SDS011;57135;51.992;4.476;2022-12-18T06:19:01;56.87;;;49.92;;
69837;SDS011;57135;51.992;4.476;2022-12-18T06:21:29;55.90;;;49.58;;
69837;SDS011;57135;51.992;4.476;2022-12-18T06:23:55;54.58;;;48.12;;
69837;SDS011;57135;51.992;4.476;2022-12-18T06:26:21;55.05;;;48.58;;
69837;SDS011;57135;51.992;4.476;2022-12-18T06:28:47;53.45;;;47.53;;
69837;SDS011;57135;51.992;4.476;2022-12-18T06:31:12;54.88;;;48.34;;
69837;SDS011;57135;51.992;4.476;2022-12-18T06:33:38;52.09;;;46.70;;
69837;SDS011;57135;51.992;4.476;2022-12-18T06:36:05;51.43;;;46.49;;
69837;SDS011;57135;51.992;4.476;2022-12-18T06:38:37;51.91;;;46.41;;
69837;SDS011;57135;51.992;4.476;2022-12-18T06:41:08;52.58;;;46.90;;
69837;SDS011;57135;51.992;4.476;2022-12-18T06:43:35;55.36;;;48.39;;
69837;SDS011;57135;51.992;4.476;2022-12-18T06:46:01;51.50;;;46.14;;
69837;SDS011;57135;51.992;4.476;2022-12-18T06:48:28;50.11;;;45.23;;
69837;SDS011;57135;51.992;4.476;2022-12-18T06:50:53;50.98;;;45.83;;
69837;SDS011;57135;51.992;4.476;2022-12-18T06:53:19;49.82;;;45.02;;
69837;SDS011;57135;51.992;4.476;2022-12-18T06:55:45;50.24;;;45.40;;
69837;SDS011;57135;51.992;4.476;2022-12-18T06:58:10;52.34;;;46.69;;
69837;SDS011;57135;51.992;4.476;2022-12-18T07:00:36;49.14;;;44.44;;
69837;SDS011;57135;51.992;4.476;2022-12-18T07:03:01;48.26;;;43.55;;
69837;SDS011;57135;51.992;4.476;2022-12-18T07:05:27;47.93;;;43.20;;
69837;SDS011;57135;51.992;4.476;2022-12-18T07:07:52;48.00;;;43.55;;
69837;SDS011;57135;51.992;4.476;2022-12-18T07:10:18;47.58;;;43.35;;
69837;SDS011;57135;51.992;4.476;2022-12-18T07:12:43;47.12;;;42.85;;
69837;SDS011;57135;51.992;4.476;2022-12-18T07:15:09;46.43;;;42.47;;
69837;SDS011;57135;51.992;4.476;2022-12-18T07:17:35;46.03;;;41.54;;
69837;SDS011;57135;51.992;4.476;2022-12-18T07:20:00;44.90;;;40.92;;
69837;SDS011;57135;51.992;4.476;2022-12-18T07:22:26;43.78;;;40.18;;
69837;SDS011;57135;51.992;4.476;2022-12-18T07:24:51;43.12;;;39.87;;
69837;SDS011;57135;51.992;4.476;2022-12-18T07:27:17;43.57;;;39.95;;
69837;SDS011;57135;51.992;4.476;2022-12-18T07:29:42;42.69;;;39.55;;
69837;SDS011;57135;51.992;4.476;2022-12-18T07:32:08;42.91;;;39.36;;
69837;SDS011;57135;51.992;4.476;2022-12-18T07:34:33;41.67;;;38.44;;
69837;SDS011;57135;51.992;4.476;2022-12-18T07:36:59;42.08;;;38.71;;
69837;SDS011;57135;51.992;4.476;2022-12-18T07:39:24;42.53;;;38.89;;
69837;SDS011;57135;51.992;4.476;2022-12-18T07:41:50;39.98;;;37.50;;
69837;SDS011;57135;51.992;4.476;2022-12-18T07:44:34;41.79;;;38.71;;
69837;SDS011;57135;51.992;4.476;2022-12-18T07:47:00;40.74;;;37.76;;
69837;SDS011;57135;51.992;4.476;2022-12-18T07:49:25;39.39;;;37.02;;
69837;SDS011;57135;51.992;4.476;2022-12-18T07:51:50;37.96;;;35.78;;
69837;SDS011;57135;51.992;4.476;2022-12-18T07:54:16;40.00;;;37.08;;
69837;SDS011;57135;51.992;4.476;2022-12-18T07:56:41;38.07;;;35.79;;
69837;SDS011;57135;51.992;4.476;2022-12-18T07:59:07;38.34;;;35.97;;
69837;SDS011;57135;51.992;4.476;2022-12-18T08:01:33;38.20;;;35.83;;
69837;SDS011;57135;51.992;4.476;2022-12-18T08:03:58;37.84;;;35.94;;
69837;SDS011;57135;51.992;4.476;2022-12-18T08:06:24;37.66;;;35.60;;
69837;SDS011;57135;51.992;4.476;2022-12-18T08:08:50;38.63;;;36.29;;
69837;SDS011;57135;51.992;4.476;2022-12-18T08:11:19;38.12;;;35.73;;
69837;SDS011;57135;51.992;4.476;2022-12-18T08:13:45;37.49;;;35.28;;
69837;SDS011;57135;51.992;4.476;2022-12-18T08:16:10;36.24;;;34.54;;
69837;SDS011;57135;51.992;4.476;2022-12-18T08:18:36;37.53;;;35.01;;
69837;SDS011;57135;51.992;4.476;2022-12-18T08:23:38;36.38;;;34.39;;
69837;SDS011;57135;51.992;4.476;2022-12-18T08:26:04;38.03;;;35.37;;
69837;SDS011;57135;51.992;4.476;2022-12-18T08:28:29;35.85;;;34.10;;
69837;SDS011;57135;51.992;4.476;2022-12-18T08:30:55;36.34;;;34.62;;
69837;SDS011;57135;51.992;4.476;2022-12-18T08:33:20;36.61;;;34.53;;
69837;SDS011;57135;51.992;4.476;2022-12-18T08:35:45;36.33;;;34.24;;
69837;SDS011;57135;51.992;4.476;2022-12-18T08:38:11;37.21;;;35.05;;
69837;SDS011;57135;51.992;4.476;2022-12-18T08:40:36;36.35;;;34.55;;
69837;SDS011;57135;51.992;4.476;2022-12-18T08:43:02;35.97;;;34.07;;
69837;SDS011;57135;51.992;4.476;2022-12-18T08:45:46;36.13;;;34.09;;
69837;SDS011;57135;51.992;4.476;2022-12-18T08:48:11;35.90;;;34.06;;
69837;SDS011;57135;51.992;4.476;2022-12-18T08:50:37;37.45;;;35.54;;
69837;SDS011;57135;51.992;4.476;2022-12-18T08:53:02;33.90;;;32.45;;
69837;SDS011;57135;51.992;4.476;2022-12-18T08:55:28;35.39;;;33.74;;
69837;SDS011;57135;51.992;4.476;2022-12-18T08:57:53;35.29;;;33.56;;
69837;SDS011;57135;51.992;4.476;2022-12-18T09:00:19;35.24;;;33.66;;
69837;SDS011;57135;51.992;4.476;2022-12-18T09:02:45;34.98;;;33.64;;
69837;SDS011;57135;51.992;4.476;2022-12-18T09:05:10;33.69;;;32.33;;
69837;SDS011;57135;51.992;4.476;2022-12-18T09:07:36;33.28;;;32.09;;
69837;SDS011;57135;51.992;4.476;2022-12-18T09:10:01;35.11;;;33.31;;
69837;SDS011;57135;51.992;4.476;2022-12-18T09:12:27;34.18;;;32.90;;
69837;SDS011;57135;51.992;4.476;2022-12-18T09:14:52;34.37;;;32.86;;
69837;SDS011;57135;51.992;4.476;2022-12-18T09:17:18;35.07;;;33.31;;
69837;SDS011;57135;51.992;4.476;2022-12-18T09:19:43;35.45;;;33.57;;
69837;SDS011;57135;51.992;4.476;2022-12-18T09:22:09;34.70;;;33.36;;
69837;SDS011;57135;51.992;4.476;2022-12-18T09:24:34;34.44;;;33.07;;
69837;SDS011;57135;51.992;4.476;2022-12-18T09:27:00;34.34;;;32.96;;
69837;SDS011;57135;51.992;4.476;2022-12-18T09:29:25;35.35;;;33.93;;
69837;SDS011;57135;51.992;4.476;2022-12-18T09:31:51;34.64;;;33.47;;
69837;SDS011;57135;51.992;4.476;2022-12-18T09:34:18;35.24;;;33.86;;
69837;SDS011;57135;51.992;4.476;2022-12-18T09:36:46;34.50;;;33.28;;
69837;SDS011;57135;51.992;4.476;2022-12-18T09:39:11;35.36;;;34.12;;
69837;SDS011;57135;51.992;4.476;2022-12-18T09:44:41;34.41;;;33.43;;
69837;SDS011;57135;51.992;4.476;2022-12-18T09:47:25;34.91;;;33.49;;
69837;SDS011;57135;51.992;4.476;2022-12-18T09:49:58;34.52;;;33.11;;
69837;SDS011;57135;51.992;4.476;2022-12-18T09:52:27;35.61;;;34.12;;
69837;SDS011;57135;51.992;4.476;2022-12-18T09:55:00;34.85;;;33.62;;
69837;SDS011;57135;51.992;4.476;2022-12-18T09:57:34;34.45;;;33.27;;
69837;SDS011;57135;51.992;4.476;2022-12-18T10:00:20;33.64;;;32.29;;
69837;SDS011;57135;51.992;4.476;2022-12-18T10:02:48;34.53;;;33.27;;
69837;SDS011;57135;51.992;4.476;2022-12-18T10:05:29;33.93;;;32.47;;
69837;SDS011;57135;51.992;4.476;2022-12-18T10:10:38;32.89;;;31.77;;
69837;SDS011;57135;51.992;4.476;2022-12-18T10:16:03;32.66;;;31.62;;
69837;SDS011;57135;51.992;4.476;2022-12-18T10:21:13;33.52;;;32.28;;
69837;SDS011;57135;51.992;4.476;2022-12-18T10:26:24;34.89;;;33.64;;
69837;SDS011;57135;51.992;4.476;2022-12-18T10:28:50;34.64;;;33.39;;
69837;SDS011;57135;51.992;4.476;2022-12-18T10:31:17;35.59;;;34.27;;
69837;SDS011;57135;51.992;4.476;2022-12-18T10:33:47;33.98;;;32.93;;
69837;SDS011;57135;51.992;4.476;2022-12-18T10:36:13;33.65;;;32.80;;
69837;SDS011;57135;51.992;4.476;2022-12-18T10:38:39;33.93;;;32.87;;
69837;SDS011;57135;51.992;4.476;2022-12-18T10:43:37;33.76;;;32.57;;
69837;SDS011;57135;51.992;4.476;2022-12-18T10:51:46;32.47;;;31.75;;
69837;SDS011;57135;51.992;4.476;2022-12-18T10:56:33;32.31;;;31.20;;
69837;SDS011;57135;51.992;4.476;2022-12-18T10:59:01;33.66;;;32.54;;
69837;SDS011;57135;51.992;4.476;2022-12-18T11:09:38;33.23;;;32.21;;
69837;SDS011;57135;51.992;4.476;2022-12-18T11:12:18;34.39;;;33.17;;
69837;SDS011;57135;51.992;4.476;2022-12-18T11:14:51;33.32;;;32.40;;
69837;SDS011;57135;51.992;4.476;2022-12-18T11:19:59;33.56;;;32.49;;
69837;SDS011;57135;51.992;4.476;2022-12-18T11:22:27;33.35;;;32.43;;
69837;SDS011;57135;51.992;4.476;2022-12-18T11:24:59;33.74;;;32.62;;
69837;SDS011;57135;51.992;4.476;2022-12-18T11:27:27;32.97;;;32.12;;
69837;SDS011;57135;51.992;4.476;2022-12-18T11:30:06;32.46;;;31.66;;
69837;SDS011;57135;51.992;4.476;2022-12-18T11:32:46;33.89;;;32.75;;
69837;SDS011;57135;51.992;4.476;2022-12-18T11:35:23;33.57;;;32.38;;
69837;SDS011;57135;51.992;4.476;2022-12-18T11:37:54;33.21;;;32.11;;
69837;SDS011;57135;51.992;4.476;2022-12-18T11:40:37;32.50;;;31.39;;
69837;SDS011;57135;51.992;4.476;2022-12-18T11:43:15;32.62;;;31.51;;
69837;SDS011;57135;51.992;4.476;2022-12-18T11:45:47;32.87;;;31.63;;
69837;SDS011;57135;51.992;4.476;2022-12-18T11:48:21;32.80;;;31.89;;
69837;SDS011;57135;51.992;4.476;2022-12-18T11:50:56;31.63;;;30.98;;
69837;SDS011;57135;51.992;4.476;2022-12-18T11:53:23;32.29;;;31.18;;
69837;SDS011;57135;51.992;4.476;2022-12-18T11:55:54;32.07;;;31.26;;
69837;SDS011;57135;51.992;4.476;2022-12-18T12:01:10;32.49;;;31.54;;
69837;SDS011;57135;51.992;4.476;2022-12-18T12:09:49;32.46;;;31.34;;
69837;SDS011;57135;51.992;4.476;2022-12-18T12:26:06;32.03;;;30.99;;
69837;SDS011;57135;51.992;4.476;2022-12-18T12:31:27;32.63;;;31.34;;
69837;SDS011;57135;51.992;4.476;2022-12-18T12:34:10;31.26;;;30.46;;
69837;SDS011;57135;51.992;4.476;2022-12-18T12:37:03;31.85;;;30.81;;
69837;SDS011;57135;51.992;4.476;2022-12-18T12:39:34;33.30;;;32.04;;
69837;SDS011;57135;51.992;4.476;2022-12-18T12:42:08;32.47;;;31.12;;
69837;SDS011;57135;51.992;4.476;2022-12-18T12:45:03;31.78;;;30.82;;
69837;SDS011;57135;51.992;4.476;2022-12-18T12:47:32;31.80;;;31.06;;
69837;SDS011;57135;51.992;4.476;2022-12-18T12:50:02;32.47;;;31.26;;
69837;SDS011;57135;51.992;4.476;2022-12-18T12:52:33;32.44;;;31.39;;
69837;SDS011;57135;51.992;4.476;2022-12-18T12:55:03;33.20;;;31.66;;
69837;SDS011;57135;51.992;4.476;2022-12-18T12:58:05;33.41;;;32.14;;
69837;SDS011;57135;51.992;4.476;2022-12-18T13:00:40;32.83;;;31.87;;
69837;SDS011;57135;51.992;4.476;2022-12-18T13:05:40;32.60;;;31.40;;
69837;SDS011;57135;51.992;4.476;2022-12-18T13:08:10;33.38;;;31.95;;
69837;SDS011;57135;51.992;4.476;2022-12-18T13:10:47;31.38;;;30.52;;
69837;SDS011;57135;51.992;4.476;2022-12-18T13:13:13;31.99;;;31.19;;
69837;SDS011;57135;51.992;4.476;2022-12-18T13:15:47;33.72;;;32.32;;
69837;SDS011;57135;51.992;4.476;2022-12-18T13:18:29;33.34;;;32.07;;
69837;SDS011;57135;51.992;4.476;2022-12-18T13:26:00;32.93;;;31.97;;
69837;SDS011;57135;51.992;4.476;2022-12-18T13:31:10;33.88;;;32.76;;
69837;SDS011;57135;51.992;4.476;2022-12-18T13:33:36;33.76;;;32.50;;
69837;SDS011;57135;51.992;4.476;2022-12-18T13:36:13;32.76;;;31.58;;
69837;SDS011;57135;51.992;4.476;2022-12-18T13:38:41;34.16;;;32.81;;
69837;SDS011;57135;51.992;4.476;2022-12-18T13:46:41;33.23;;;32.04;;
69837;SDS011;57135;51.992;4.476;2022-12-18T13:51:51;32.98;;;32.00;;
69837;SDS011;57135;51.992;4.476;2022-12-18T13:54:30;32.73;;;31.70;;
69837;SDS011;57135;51.992;4.476;2022-12-18T13:57:03;32.92;;;31.86;;
69837;SDS011;57135;51.992;4.476;2022-12-18T14:02:01;33.24;;;32.21;;
69837;SDS011;57135;51.992;4.476;2022-12-18T14:04:38;33.44;;;32.32;;
69837;SDS011;57135;51.992;4.476;2022-12-18T14:07:05;34.28;;;33.02;;
69837;SDS011;57135;51.992;4.476;2022-12-18T14:09:36;33.43;;;32.42;;
69837;SDS011;57135;51.992;4.476;2022-12-18T14:12:05;34.45;;;33.23;;
69837;SDS011;57135;51.992;4.476;2022-12-18T14:14:51;33.65;;;32.45;;
69837;SDS011;57135;51.992;4.476;2022-12-18T14:17:18;36.20;;;34.69;;
69837;SDS011;57135;51.992;4.476;2022-12-18T14:19:44;35.13;;;34.05;;
69837;SDS011;57135;51.992;4.476;2022-12-18T14:22:23;36.25;;;34.85;;
69837;SDS011;57135;51.992;4.476;2022-12-18T14:27:42;34.65;;;33.54;;
69837;SDS011;57135;51.992;4.476;2022-12-18T14:30:30;38.11;;;36.72;;
69837;SDS011;57135;51.992;4.476;2022-12-18T14:35:37;37.95;;;36.75;;
69837;SDS011;57135;51.992;4.476;2022-12-18T14:38:10;39.50;;;38.19;;
69837;SDS011;57135;51.992;4.476;2022-12-18T14:40:42;40.35;;;38.72;;
69837;SDS011;57135;51.992;4.476;2022-12-18T14:43:11;38.96;;;37.44;;
69837;SDS011;57135;51.992;4.476;2022-12-18T14:45:38;39.53;;;38.08;;
69837;SDS011;57135;51.992;4.476;2022-12-18T14:48:09;38.50;;;37.58;;
69837;SDS011;57135;51.992;4.476;2022-12-18T14:50:42;37.82;;;36.91;;
69837;SDS011;57135;51.992;4.476;2022-12-18T14:53:18;36.67;;;35.32;;
69837;SDS011;57135;51.992;4.476;2022-12-18T14:55:48;35.85;;;34.60;;
69837;SDS011;57135;51.992;4.476;2022-12-18T14:58:14;36.01;;;34.76;;
69837;SDS011;57135;51.992;4.476;2022-12-18T15:00:41;36.22;;;35.07;;
69837;SDS011;57135;51.992;4.476;2022-12-18T15:03:07;35.66;;;34.34;;
69837;SDS011;57135;51.992;4.476;2022-12-18T15:05:34;35.26;;;34.33;;
69837;SDS011;57135;51.992;4.476;2022-12-18T15:08:00;34.83;;;33.46;;
69837;SDS011;57135;51.992;4.476;2022-12-18T15:10:30;35.57;;;34.30;;
69837;SDS011;57135;51.992;4.476;2022-12-18T15:23:27;38.20;;;37.35;;
69837;SDS011;57135;51.992;4.476;2022-12-18T15:26:05;36.37;;;35.08;;
69837;SDS011;57135;51.992;4.476;2022-12-18T15:28:48;35.04;;;33.79;;
69837;SDS011;57135;51.992;4.476;2022-12-18T15:31:33;35.29;;;33.83;;
69837;SDS011;57135;51.992;4.476;2022-12-18T15:34:13;35.83;;;34.76;;
69837;SDS011;57135;51.992;4.476;2022-12-18T15:36:44;35.10;;;33.76;;
69837;SDS011;57135;51.992;4.476;2022-12-18T15:39:10;35.58;;;34.33;;
69837;SDS011;57135;51.992;4.476;2022-12-18T15:41:37;35.06;;;33.92;;
69837;SDS011;57135;51.992;4.476;2022-12-18T15:44:03;35.28;;;34.08;;
69837;SDS011;57135;51.992;4.476;2022-12-18T15:46:48;35.15;;;33.61;;
69837;SDS011;57135;51.992;4.476;2022-12-18T15:49:14;34.91;;;33.47;;
69837;SDS011;57135;51.992;4.476;2022-12-18T15:51:39;33.42;;;32.31;;
69837;SDS011;57135;51.992;4.476;2022-12-18T15:54:06;33.91;;;32.32;;
69837;SDS011;57135;51.992;4.476;2022-12-18T15:56:38;32.87;;;31.88;;
69837;SDS011;57135;51.992;4.476;2022-12-18T15:59:22;32.36;;;31.20;;
69837;SDS011;57135;51.992;4.476;2022-12-18T16:01:48;33.18;;;31.94;;
69837;SDS011;57135;51.992;4.476;2022-12-18T16:04:16;33.05;;;31.91;;
69837;SDS011;57135;51.992;4.476;2022-12-18T16:06:45;32.34;;;31.25;;
69837;SDS011;57135;51.992;4.476;2022-12-18T16:09:11;32.25;;;31.02;;
69837;SDS011;57135;51.992;4.476;2022-12-18T16:11:37;32.16;;;31.29;;
69837;SDS011;57135;51.992;4.476;2022-12-18T16:14:22;33.52;;;32.49;;
69837;SDS011;57135;51.992;4.476;2022-12-18T16:16:52;33.44;;;31.90;;
69837;SDS011;57135;51.992;4.476;2022-12-18T16:19:19;33.58;;;32.40;;
69837;SDS011;57135;51.992;4.476;2022-12-18T16:21:46;32.38;;;31.39;;
69837;SDS011;57135;51.992;4.476;2022-12-18T16:24:17;32.55;;;31.31;;
69837;SDS011;57135;51.992;4.476;2022-12-18T16:26:46;33.80;;;32.25;;
69837;SDS011;57135;51.992;4.476;2022-12-18T16:29:13;32.66;;;31.62;;
69837;SDS011;57135;51.992;4.476;2022-12-18T16:31:39;33.09;;;31.80;;
69837;SDS011;57135;51.992;4.476;2022-12-18T16:34:19;33.09;;;32.12;;
69837;SDS011;57135;51.992;4.476;2022-12-18T16:36:51;34.47;;;33.12;;